Time;durP1;ratioP1;P1;durP2;ratioP2;P2;SDS_P1;SDS_P2;PMS_P1;PMS_P2;Temp;Humidity;BMP_temperature;BMP_pressure;BME280_temperature;BME280_humidity;BME280_pressure;Samples;Min_cycle;Max_cycle;Signal;HPM_P1;HPM_P2
2021/06/26 00:01:24;;;;;;;25.58;8.15;;;;;;;27.60;47.92;99165.41;5113215;28;20066;-71
2021/06/26 00:03:49;;;;;;;32.35;8.93;;;;;;;27.46;48.07;99171.59;5112021;28;20416;-70
2021/06/26 00:06:15;;;;;;;29.05;7.85;;;;;;;27.31;49.38;99177.78;5113136;28;20412;-71
2021/06/26 00:08:40;;;;;;;27.98;8.77;;;;;;;27.48;48.84;99183.41;5113445;28;20042;-71
2021/06/26 00:11:06;;;;;;;28.42;8.27;;;;;;;27.56;49.41;99184.84;5112066;28;20476;-71
2021/06/26 00:13:31;;;;;;;27.55;7.88;;;;;;;27.47;50.06;99185.50;5113089;28;20028;-71
2021/06/26 00:15:57;;;;;;;27.35;8.35;;;;;;;27.55;49.19;99196.78;5111754;27;20043;-71
2021/06/26 00:18:22;;;;;;;34.05;8.02;;;;;;;26.48;52.46;99203.94;5111047;28;20044;-70
2021/06/26 00:20:47;;;;;;;30.48;7.97;;;;;;;26.27;54.28;99199.59;5113063;28;20028;-70
2021/06/26 00:23:13;;;;;;;19.90;7.70;;;;;;;25.71;55.81;99203.44;5111417;28;20465;-70
2021/06/26 00:25:39;;;;;;;40.20;8.75;;;;;;;25.45;56.18;99206.00;5112872;28;20027;-71
2021/06/26 00:28:05;;;;;;;31.60;8.80;;;;;;;25.46;56.99;99199.03;5111440;28;20016;-70
2021/06/26 00:30:30;;;;;;;22.60;8.30;;;;;;;25.65;56.84;99195.34;5112919;28;20034;-70
2021/06/26 00:32:56;;;;;;;32.92;8.82;;;;;;;25.76;56.65;99206.56;5112581;28;20512;-70
2021/06/26 00:35:22;;;;;;;34.65;8.43;;;;;;;25.87;55.69;99200.56;5111166;28;20134;-71
2021/06/26 00:37:47;;;;;;;35.00;8.63;;;;;;;26.03;55.65;99208.34;5112555;28;20031;-70
2021/06/26 00:40:13;;;;;;;26.88;8.95;;;;;;;26.07;55.95;99211.13;5112638;28;20042;-72
2021/06/26 00:42:41;;;;;;;33.03;9.73;;;;;;;26.15;55.33;99203.16;5111319;28;20028;-70
2021/06/26 00:45:09;;;;;;;31.02;8.23;;;;;;;25.90;56.06;99198.88;5112760;28;20032;-70
2021/06/26 00:47:34;;;;;;;27.33;8.88;;;;;;;25.93;55.80;99198.75;5112445;28;20027;-70
2021/06/26 00:50:00;;;;;;;32.13;9.10;;;;;;;25.97;55.54;99203.59;5110961;28;20394;-71
2021/06/26 00:52:25;;;;;;;30.45;9.50;;;;;;;25.84;56.29;99217.81;5112396;28;20035;-70
2021/06/26 00:54:52;;;;;;;33.15;11.02;;;;;;;25.84;56.82;99212.91;5110994;28;20461;-71
2021/06/26 00:57:19;;;;;;;35.55;11.82;;;;;;;25.93;56.53;99192.22;5112371;28;20023;-70
2021/06/26 00:59:46;;;;;;;30.95;11.00;;;;;;;25.87;56.47;99203.41;5112561;28;20476;-70
2021/06/26 01:02:12;;;;;;;41.70;11.93;;;;;;;25.99;56.42;99198.22;5112053;28;20051;-70
2021/06/26 01:04:38;;;;;;;24.70;11.23;;;;;;;26.02;56.18;99192.41;5112530;28;20044;-70
2021/06/26 01:07:03;;;;;;;31.27;10.48;;;;;;;26.13;55.92;99197.84;5112066;28;20034;-70
2021/06/26 01:09:29;;;;;;;32.70;9.45;;;;;;;26.08;55.71;99204.94;5110879;28;20035;-70
2021/06/26 01:11:57;;;;;;;25.42;8.65;;;;;;;25.91;56.19;99203.34;5110591;28;20024;-71
2021/06/26 01:14:30;;;;;;;36.75;10.25;;;;;;;25.91;56.21;99204.13;5111919;28;20497;-70
2021/06/26 01:16:56;;;;;;;28.10;9.85;;;;;;;25.97;56.33;99197.88;5111875;28;20176;-70
2021/06/26 01:19:21;;;;;;;36.90;9.15;;;;;;;25.90;56.25;99205.38;5112179;28;20055;-70
2021/06/26 01:21:52;;;;;;;35.40;11.93;;;;;;;25.88;56.50;99205.03;5111892;28;20038;-71
2021/06/26 01:24:18;;;;;;;35.05;9.52;;;;;;;25.76;57.39;99200.00;5111795;28;20034;-70
2021/06/26 01:26:44;;;;;;;33.95;9.68;;;;;;;26.04;56.17;99198.50;5110539;28;20039;-70
2021/06/26 01:29:11;;;;;;;26.60;9.60;;;;;;;25.83;56.52;99205.56;5111046;28;20443;-70
2021/06/26 01:31:36;;;;;;;31.27;11.10;;;;;;;25.74;57.09;99209.03;5111742;28;20081;-71
2021/06/26 01:34:02;;;;;;;28.30;9.65;;;;;;;25.69;56.74;99212.44;5109958;28;20061;-71
2021/06/26 01:36:27;;;;;;;27.23;10.98;;;;;;;25.90;56.11;99198.88;5110637;28;20072;-70
2021/06/26 01:38:57;;;;;;;26.50;11.98;;;;;;;25.79;56.42;99194.22;5110083;28;20032;-71
2021/06/26 01:41:24;;;;;;;;;;;;;;;25.89;56.45;99183.72;5111932;28;20026;-71
2021/06/26 01:43:50;;;;;;;31.85;10.93;;;;;;;25.85;56.20;99185.88;5111508;28;19923;-70
2021/06/26 01:46:16;;;;;;;33.50;10.07;;;;;;;25.87;56.76;99183.38;5109856;28;20028;-70
2021/06/26 01:48:42;;;;;;;33.10;10.30;;;;;;;25.66;57.42;99196.16;5111429;28;20028;-70
2021/06/26 01:51:07;;;;;;;40.40;10.23;;;;;;;25.67;57.05;99192.06;5111093;28;20481;-71
2021/06/26 01:53:33;;;;;;;28.80;11.55;;;;;;;25.68;56.70;99196.53;5111434;27;20040;-70
2021/06/26 01:55:58;;;;;;;40.70;11.63;;;;;;;25.92;56.17;99199.22;5109986;28;20032;-70
2021/06/26 01:58:24;;;;;;;26.15;10.05;;;;;;;25.88;56.46;99201.34;5111073;28;20107;-70
2021/06/26 02:00:50;;;;;;;31.55;10.30;;;;;;;25.81;56.55;99205.19;5111127;28;20032;-72
2021/06/26 02:03:16;;;;;;;26.25;10.05;;;;;;;25.95;55.49;99203.25;5110862;28;20036;-70
2021/06/26 02:05:41;;;;;;;35.78;10.55;;;;;;;25.98;55.84;99210.94;5111135;28;20477;-70
2021/06/26 02:08:07;;;;;;;35.47;9.15;;;;;;;25.70;56.81;99214.06;5110938;28;20027;-71
2021/06/26 02:10:32;;;;;;;38.65;9.27;;;;;;;25.63;57.37;99217.91;5111041;28;20497;-70
2021/06/26 02:12:58;;;;;;;28.58;9.90;;;;;;;25.64;57.24;99216.66;5111042;28;20544;-70
2021/06/26 02:15:24;;;;;;;28.80;10.32;;;;;;;25.59;56.52;99220.06;5110676;28;20027;-71
2021/06/26 02:17:49;;;;;;;37.50;9.85;;;;;;;25.70;56.42;99216.09;5110877;28;20504;-71
2021/06/26 02:20:15;;;;;;;37.35;11.35;;;;;;;25.45;57.54;99211.75;5109605;28;20408;-71
2021/06/26 02:22:42;;;;;;;32.92;9.68;;;;;;;25.46;56.91;99208.44;5110864;28;20020;-70
2021/06/26 02:25:08;;;;;;;20.27;9.02;;;;;;;25.73;55.53;99200.91;5111121;28;20027;-71
2021/06/26 02:27:34;;;;;;;24.60;9.88;;;;;;;25.65;54.08;99195.34;5110660;28;20031;-71
2021/06/26 02:30:00;;;;;;;34.22;9.68;;;;;;;25.66;55.59;99193.31;5111156;28;20483;-70
2021/06/26 02:32:25;;;;;;;42.08;11.15;;;;;;;25.71;55.75;99187.03;5109419;28;20039;-70
2021/06/26 02:34:53;;;;;;;36.95;10.15;;;;;;;25.61;56.19;99186.06;5110700;28;20039;-71
2021/06/26 02:37:19;;;;;;;35.22;11.15;;;;;;;25.57;56.33;99181.66;5109479;28;20188;-71
2021/06/26 02:39:45;;;;;;;30.30;9.85;;;;;;;25.53;55.99;99176.00;5110932;28;20058;-71
2021/06/26 02:42:10;;;;;;;33.92;8.13;;;;;;;25.54;53.62;99168.25;5113678;28;20023;-70
2021/06/26 02:44:35;;;;;;;31.38;9.13;;;;;;;25.55;52.92;99162.06;5114839;28;20491;-71
2021/06/26 02:47:01;;;;;;;33.88;9.98;;;;;;;25.49;52.45;99169.56;5114898;28;20016;-70
2021/06/26 02:49:26;;;;;;;34.90;8.02;;;;;;;25.51;51.47;99161.34;5113341;28;20040;-71
2021/06/26 02:51:52;;;;;;;21.05;8.52;;;;;;;25.56;51.86;99169.38;5114853;28;20161;-70
2021/06/26 02:54:18;;;;;;;36.53;8.55;;;;;;;25.54;52.23;99179.69;5114890;28;20100;-71
2021/06/26 02:56:43;;;;;;;24.92;8.57;;;;;;;25.62;52.05;99184.78;5114793;28;20019;-71
2021/06/26 02:59:52;;;;;;;33.72;9.43;;;;;;;25.47;53.22;99174.91;5112631;28;20035;-71
2021/06/26 03:02:18;;;;;;;32.95;7.82;;;;;;;25.69;52.63;99188.72;5113173;28;20067;-71
2021/06/26 03:04:44;;;;;;;34.30;10.88;;;;;;;25.69;53.18;99183.00;5109425;28;20062;-71
2021/06/26 03:07:09;;;;;;;31.52;10.80;;;;;;;25.55;53.74;99195.63;5099899;28;20493;-71
2021/06/26 03:09:35;;;;;;;33.10;8.57;;;;;;;25.57;53.64;99193.91;5114642;28;20106;-71
2021/06/26 03:12:01;;;;;;;24.15;8.70;;;;;;;25.52;54.53;99203.03;5114284;28;20032;-71
2021/06/26 03:14:27;;;;;;;31.17;9.20;;;;;;;25.56;54.01;99206.59;5114531;28;20061;-71
2021/06/26 03:16:52;;;;;;;40.55;9.25;;;;;;;25.49;53.99;99203.94;5113968;28;20416;-71
2021/06/26 03:19:18;;;;;;;29.65;10.52;;;;;;;25.19;55.15;99208.63;5114455;28;20393;-71
2021/06/26 03:21:43;;;;;;;25.00;9.68;;;;;;;25.04;55.68;99202.41;5114057;28;20042;-71
2021/06/26 03:24:09;;;;;;;32.42;9.82;;;;;;;25.05;55.44;99199.13;5125658;27;20035;-71
2021/06/26 03:26:34;;;;;;;34.72;10.50;;;;;;;24.97;55.79;99194.78;5114111;28;20035;-70
2021/06/26 03:29:03;;;;;;;36.20;11.15;;;;;;;24.92;55.91;99203.91;5117930;27;20066;-71
2021/06/26 03:31:30;;;;;;;32.47;9.18;;;;;;;25.11;55.33;99204.34;5123208;27;20084;-70
2021/06/26 03:33:56;;;;;;;44.38;10.05;;;;;;;25.05;56.31;99201.97;5113593;28;20047;-71
2021/06/26 03:36:21;;;;;;;33.10;9.90;;;;;;;25.01;56.46;99204.13;5118279;27;20120;-70
2021/06/26 03:38:47;;;;;;;28.10;9.43;;;;;;;24.98;57.05;99205.00;5113777;28;20020;-71
2021/06/26 03:41:12;;;;;;;26.35;8.10;;;;;;;25.03;56.88;99207.34;5113807;28;20443;-71
2021/06/26 03:43:39;;;;;;;25.05;9.65;;;;;;;25.06;57.55;99212.16;5113922;28;20085;-71
2021/06/26 03:46:04;;;;;;;39.13;10.85;;;;;;;25.22;56.78;99219.22;5113325;28;20488;-71
2021/06/26 03:48:30;;;;;;;40.63;10.38;;;;;;;25.18;56.66;99215.59;5113806;28;20040;-71
2021/06/26 03:50:58;;;;;;;28.52;10.48;;;;;;;25.34;56.72;99215.69;5113460;28;20441;-71
2021/06/26 03:53:27;;;;;;;38.67;10.18;;;;;;;25.37;57.03;99220.50;5111275;28;20097;-71
2021/06/26 03:55:53;;;;;;;35.08;11.60;;;;;;;25.44;55.97;99227.31;5113240;28;20020;-71
2021/06/26 03:58:23;;;;;;;34.88;12.00;;;;;;;25.33;56.82;99225.50;5113676;28;20039;-71
2021/06/26 04:00:49;;;;;;;43.15;10.98;;;;;;;25.42;56.44;99229.81;5111966;28;20461;-71
2021/06/26 04:03:16;;;;;;;36.75;9.95;;;;;;;25.39;56.97;99234.34;5125336;27;20131;-71
2021/06/26 04:05:42;;;;;;;41.22;10.70;;;;;;;25.46;57.08;99228.47;5113209;28;20019;-71
2021/06/26 04:08:08;;;;;;;28.08;8.65;;;;;;;25.49;57.33;99227.63;5112904;28;20115;-70
2021/06/26 04:10:34;;;;;;;36.17;10.93;;;;;;;25.48;57.52;99230.91;5112544;28;20560;-70
2021/06/26 04:12:59;;;;;;;29.83;9.00;;;;;;;25.59;56.77;99236.41;5112041;28;20016;-71
2021/06/26 04:15:24;;;;;;;32.47;9.57;;;;;;;25.69;56.99;99240.25;5112194;28;20023;-70
2021/06/26 04:17:50;;;;;;;29.17;10.07;;;;;;;25.87;56.28;99246.38;5110775;28;20026;-71
2021/06/26 04:20:15;;;;;;;37.40;10.55;;;;;;;25.76;56.53;99248.69;5111499;28;20458;-71
2021/06/26 04:22:44;;;;;;;36.97;10.00;;;;;;;25.83;57.38;99253.44;5112123;28;20055;-71
2021/06/26 04:25:11;;;;;;;34.67;9.77;;;;;;;25.90;56.30;99256.94;5110821;28;20039;-71
2021/06/26 04:27:36;;;;;;;34.92;9.23;;;;;;;25.92;56.42;99251.56;5112694;28;20027;-71
2021/06/26 04:30:03;;;;;;;37.53;10.63;;;;;;;26.11;56.49;99251.94;5113067;28;20398;-71
2021/06/26 04:32:29;;;;;;;22.92;9.52;;;;;;;25.95;56.97;99252.75;5112967;28;20445;-71
2021/06/26 04:34:54;;;;;;;28.90;11.25;;;;;;;26.00;57.23;99245.69;5112668;28;20040;-71
2021/06/26 04:37:20;;;;;;;33.67;10.10;;;;;;;26.03;56.20;99242.72;5112591;28;20034;-71
2021/06/26 04:39:45;;;;;;;37.25;9.90;;;;;;;26.10;55.68;99246.66;5111598;28;20031;-71
2021/06/26 04:42:11;;;;;;;25.25;8.60;;;;;;;26.15;55.07;99254.72;5112459;28;20012;-71
2021/06/26 04:44:36;;;;;;;38.10;11.07;;;;;;;26.05;57.33;99257.41;5112904;28;20035;-70
2021/06/26 04:47:02;;;;;;;33.75;10.73;;;;;;;25.95;57.45;99263.41;5112494;28;20020;-71
2021/06/26 04:49:28;;;;;;;39.65;10.70;;;;;;;26.10;56.90;99258.94;5119249;27;20043;-70
2021/06/26 04:51:53;;;;;;;37.08;12.00;;;;;;;26.12;56.92;99262.16;5112396;28;20023;-71
2021/06/26 04:54:19;;;;;;;30.23;9.75;;;;;;;26.24;56.58;99257.78;5112169;28;20493;-71
2021/06/26 04:56:44;;;;;;;28.23;9.65;;;;;;;26.54;54.68;99260.72;5100466;28;20024;-71
2021/06/26 04:59:10;;;;;;;45.42;13.48;;;;;;;26.65;54.49;99252.63;5133145;27;20027;-71
2021/06/26 05:01:35;;;;;;;31.27;10.38;;;;;;;26.46;55.21;99251.50;5110850;28;20036;-71
2021/06/26 05:04:01;;;;;;;47.15;11.55;;;;;;;26.60;54.33;99253.19;5111136;28;20031;-70
2021/06/26 05:06:26;;;;;;;27.50;11.20;;;;;;;26.38;55.05;99245.16;5112215;28;20428;-71
2021/06/26 05:08:51;;;;;;;30.67;10.18;;;;;;;26.39;56.54;99245.97;5093702;28;20028;-72
2021/06/26 05:11:17;;;;;;;33.05;10.40;;;;;;;26.50;56.04;99255.09;5110866;28;20031;-71
2021/06/26 05:13:45;;;;;;;35.83;10.77;;;;;;;26.33;57.43;99257.97;5110731;28;20054;-71
2021/06/26 05:16:11;;;;;;;36.70;11.23;;;;;;;26.30;59.16;99261.72;5117271;27;20030;-71
2021/06/26 05:18:36;;;;;;;33.30;11.57;;;;;;;26.35;59.39;99257.53;5123012;27;20028;-70
2021/06/26 05:21:03;;;;;;;43.90;11.73;;;;;;;26.40;56.47;99248.38;5102447;28;20020;-70
2021/06/26 05:23:29;;;;;;;38.47;10.68;;;;;;;26.48;56.36;99246.13;5109251;28;20028;-72
2021/06/26 05:25:54;;;;;;;31.08;10.18;;;;;;;26.40;56.23;99248.38;5104248;28;20035;-72
2021/06/26 05:28:19;;;;;;;30.85;10.05;;;;;;;26.53;56.01;99244.75;5107006;28;20473;-69
2021/06/26 05:30:45;;;;;;;36.15;10.68;;;;;;;26.55;53.40;99240.19;5110420;28;20020;-72
2021/06/26 05:33:11;;;;;;;29.08;11.00;;;;;;;26.50;53.02;99243.63;5100081;28;20416;-72
2021/06/26 05:35:37;;;;;;;34.92;11.63;;;;;;;26.55;53.86;99248.00;5110943;28;20055;-68
2021/06/26 05:38:03;;;;;;;39.88;12.25;;;;;;;26.73;52.34;99253.25;5111665;28;20123;-69
2021/06/26 05:40:28;;;;;;;32.95;10.45;;;;;;;26.72;52.47;99246.69;5099209;28;20030;-70
2021/06/26 05:42:54;;;;;;;34.65;11.43;;;;;;;26.66;52.97;99251.38;5110277;28;20047;-72
2021/06/26 05:45:19;;;;;;;41.00;10.85;;;;;;;26.97;51.70;99245.22;5098931;28;20032;-71
2021/06/26 05:47:45;;;;;;;34.30;11.90;;;;;;;27.00;52.86;99249.25;5110905;28;20409;-71
2021/06/26 05:50:11;;;;;;;33.30;11.00;;;;;;;27.02;52.59;99250.38;5108082;28;20031;-71
2021/06/26 05:52:47;;;;;;;35.58;11.68;;;;;;;27.20;50.08;99249.06;5111368;28;20111;-71
2021/06/26 05:55:13;;;;;;;40.38;11.80;;;;;;;27.18;50.54;99252.38;5107383;28;20035;-72
2021/06/26 05:57:38;;;;;;;30.75;10.75;;;;;;;27.30;50.04;99250.81;5096066;28;20485;-72
2021/06/26 06:00:05;;;;;;;37.15;12.13;;;;;;;27.44;50.54;99249.56;5110872;28;20501;-71
2021/06/26 06:02:30;;;;;;;33.22;10.65;;;;;;;27.54;49.00;99259.16;5110152;28;20039;-72
2021/06/26 06:04:55;;;;;;;32.88;10.80;;;;;;;27.64;50.02;99260.09;5109286;28;20036;-72
2021/06/26 06:07:21;;;;;;;35.33;11.90;;;;;;;27.74;50.11;99258.94;5107885;28;20023;-72
2021/06/26 06:09:46;;;;;;;28.48;10.80;;;;;;;27.89;49.31;99258.47;5107719;28;20047;-72
2021/06/26 06:12:12;;;;;;;31.75;10.43;;;;;;;27.88;49.15;99260.56;5108976;28;20019;-72
2021/06/26 06:14:38;;;;;;;24.92;9.77;;;;;;;28.05;48.04;99262.47;5107610;28;20028;-72
2021/06/26 06:17:03;;;;;;;44.25;9.63;;;;;;;28.24;46.29;99264.34;5109018;28;20027;-72
2021/06/26 06:19:29;;;;;;;25.85;8.80;;;;;;;28.23;47.13;99268.47;5111079;28;20509;-72
2021/06/26 06:21:54;;;;;;;23.90;9.00;;;;;;;28.26;47.41;99276.19;5110994;28;20069;-72
2021/06/26 06:24:19;;;;;;;34.25;9.05;;;;;;;28.36;47.82;99270.53;5110918;28;20503;-72
2021/06/26 06:26:45;;;;;;;22.23;9.07;;;;;;;28.51;47.73;99268.75;5110972;28;20020;-72
2021/06/26 06:29:10;;;;;;;36.35;8.57;;;;;;;28.70;46.72;99257.44;5111031;28;20036;-71
2021/06/26 06:31:36;;;;;;;28.13;9.43;;;;;;;28.77;46.25;99265.78;5109558;28;20024;-72
2021/06/26 06:34:01;;;;;;;25.67;10.52;;;;;;;28.93;46.05;99264.06;5110271;28;20058;-72
2021/06/26 06:36:28;;;;;;;28.13;10.77;;;;;;;28.97;45.74;99256.91;5113691;28;20057;-73
2021/06/26 06:38:53;;;;;;;42.28;9.10;;;;;;;28.93;46.16;99264.84;5118251;28;20606;-71
2021/06/26 06:41:19;;;;;;;31.75;9.70;;;;;;;29.02;46.11;99257.56;5120498;28;20034;-72
2021/06/26 06:43:44;;;;;;;27.20;8.82;;;;;;;29.10;46.36;99256.03;5110777;28;20027;-73
2021/06/26 06:46:10;;;;;;;39.13;10.48;;;;;;;29.07;46.28;99248.31;5099146;28;20424;-72
2021/06/26 06:48:35;;;;;;;41.03;10.07;;;;;;;29.10;46.12;99244.50;5110510;28;20469;-72
2021/06/26 06:51:01;;;;;;;42.15;11.32;;;;;;;29.19;45.39;99249.53;5108354;28;20236;-72
2021/06/26 06:53:26;;;;;;;42.80;12.07;;;;;;;29.07;45.31;99233.91;5110469;28;20031;-70
2021/06/26 06:55:52;;;;;;;39.47;11.93;;;;;;;29.38;45.08;99233.16;5110903;28;20038;-72
2021/06/26 06:58:18;;;;;;;31.48;8.05;;;;;;;29.66;42.05;99233.31;5123965;28;20051;-71
2021/06/26 07:00:44;;;;;;;35.13;8.48;;;;;;;29.72;41.68;99237.19;5116414;28;20849;-73
2021/06/26 07:03:10;;;;;;;38.05;8.40;;;;;;;29.75;41.08;99252.75;5115883;27;20035;-74
2021/06/26 07:05:35;;;;;;;37.35;8.50;;;;;;;29.88;40.41;99255.50;5110182;28;20050;-73
2021/06/26 07:08:01;;;;;;;32.67;8.38;;;;;;;30.01;40.86;99255.41;5110132;28;20027;-75
2021/06/26 07:10:26;;;;;;;34.42;8.65;;;;;;;30.06;41.51;99251.91;5110316;28;20084;-71
2021/06/26 07:12:52;;;;;;;30.92;8.25;;;;;;;29.80;40.70;99264.44;5106553;28;20031;-75
2021/06/26 07:15:17;;;;;;;30.10;7.32;;;;;;;29.81;40.28;99268.13;5110249;28;20088;-74
2021/06/26 07:17:43;;;;;;;36.03;9.18;;;;;;;30.23;38.75;99261.09;5110335;28;20028;-76
2021/06/26 07:20:09;;;;;;;32.08;7.85;;;;;;;30.43;38.91;99254.88;5110289;28;20098;-76
2021/06/26 07:22:34;;;;;;;37.72;8.50;;;;;;;30.25;39.07;99253.59;5106825;28;20569;-81
2021/06/26 07:25:00;;;;;;;34.75;9.18;;;;;;;30.39;40.83;99257.91;5110329;28;20101;-74
2021/06/26 07:27:25;;;;;;;35.88;9.55;;;;;;;30.54;40.63;99261.00;5111598;28;20032;-73
2021/06/26 07:29:51;;;;;;;23.63;9.63;;;;;;;30.65;40.22;99253.97;5114140;28;20020;-79
2021/06/26 07:32:16;;;;;;;35.33;10.35;;;;;;;30.79;40.35;99258.31;5110237;28;20035;-73
2021/06/26 07:34:42;;;;;;;36.10;9.68;;;;;;;31.04;39.58;99267.94;5113888;28;20123;-78
2021/06/26 07:37:07;;;;;;;30.52;10.35;;;;;;;31.16;38.17;99272.75;5113763;28;20542;-70
2021/06/26 07:39:33;;;;;;;40.08;10.15;;;;;;;31.13;40.13;99287.34;5112355;28;20573;-76
2021/06/26 07:41:58;;;;;;;28.58;8.85;;;;;;;31.21;39.10;99285.72;5112409;28;20519;-74
2021/06/26 07:44:25;;;;;;;31.90;11.25;;;;;;;31.18;40.57;99293.28;5110416;28;20019;-80
2021/06/26 07:46:51;;;;;;;30.65;10.48;;;;;;;31.26;42.70;99292.97;5113567;28;20040;-77
2021/06/26 07:49:16;;;;;;;34.63;9.63;;;;;;;31.18;43.64;99306.91;5112382;28;20114;-72
2021/06/26 07:51:42;;;;;;;33.33;11.48;;;;;;;31.14;44.33;99303.38;5112356;28;20118;-72
2021/06/26 07:54:07;;;;;;;27.33;10.18;;;;;;;31.19;44.43;99300.66;5113628;28;20473;-78
2021/06/26 07:56:34;;;;;;;52.22;12.05;;;;;;;31.18;43.58;99307.72;5113589;28;20122;-75
2021/06/26 07:58:59;;;;;;;35.25;10.70;;;;;;;31.16;45.49;99303.69;5113491;28;20027;-75
2021/06/26 08:01:26;;;;;;;53.17;12.48;;;;;;;31.14;45.36;99307.06;5113319;28;20093;-72
2021/06/26 08:03:51;;;;;;;37.25;13.95;;;;;;;31.34;46.22;99303.72;5112475;28;20054;-73
2021/06/26 08:06:16;;;;;;;45.88;13.05;;;;;;;31.21;45.35;99309.63;5113172;28;20509;-75
2021/06/26 08:08:42;;;;;;;40.78;12.02;;;;;;;31.22;44.64;99316.25;5113656;28;20496;-75
2021/06/26 08:11:07;;;;;;;48.47;12.55;;;;;;;31.17;45.49;99311.88;5113083;28;20410;-76
2021/06/26 08:13:33;;;;;;;52.83;11.48;;;;;;;31.15;44.43;99316.53;5113378;28;20026;-73
2021/06/26 08:15:58;;;;;;;28.48;10.73;;;;;;;31.25;44.86;99321.03;5113223;28;20782;-76
2021/06/26 08:18:24;;;;;;;24.55;10.25;;;;;;;31.21;45.33;99320.38;5114808;27;20385;-74
2021/06/26 08:20:49;;;;;;;23.67;10.43;;;;;;;31.08;46.67;99323.44;5112982;28;20054;-75
2021/06/26 08:23:15;;;;;;;42.92;14.13;;;;;;;31.05;47.01;99318.63;5111115;28;20028;-76
2021/06/26 08:25:40;;;;;;;27.73;12.20;;;;;;;30.92;47.39;99328.25;5111577;28;20031;-73
2021/06/26 08:28:06;;;;;;;34.13;15.05;;;;;;;30.72;48.56;99325.00;5112743;27;20378;-73
2021/06/26 08:30:32;;;;;;;36.55;13.63;;;;;;;30.70;49.02;99316.03;5112965;28;20103;-73
2021/06/26 08:32:57;;;;;;;57.72;14.02;;;;;;;30.57;47.77;99324.78;5112810;28;20027;-73
2021/06/26 08:35:23;;;;;;;44.22;13.30;;;;;;;30.49;46.84;99312.75;5112796;27;20058;-72
2021/06/26 08:37:51;;;;;;;42.80;12.98;;;;;;;30.54;46.33;99315.81;5112335;28;20023;-75
2021/06/26 08:40:18;;;;;;;38.28;13.15;;;;;;;30.26;47.28;99309.97;5111175;28;20055;-71
2021/06/26 08:42:44;;;;;;;31.70;13.40;;;;;;;30.41;47.41;99312.25;5111320;28;20032;-73
2021/06/26 08:45:12;;;;;;;28.55;12.23;;;;;;;30.55;46.48;99299.31;5111063;28;20042;-74
2021/06/26 08:47:39;;;;;;;28.45;11.90;;;;;;;30.76;46.13;99303.38;5112565;28;20122;-73
2021/06/26 08:50:05;;;;;;;35.50;11.70;;;;;;;30.48;46.91;99293.84;5112883;28;20042;-74
2021/06/26 08:52:33;;;;;;;19.15;10.48;;;;;;;30.44;47.84;99287.44;5109157;28;20027;-73
2021/06/26 08:54:59;;;;;;;27.95;10.23;;;;;;;30.39;47.45;99291.75;5111228;28;20460;-73
2021/06/26 08:57:29;;;;;;;25.65;10.55;;;;;;;30.57;46.76;99295.94;5112243;28;20076;-74
2021/06/26 08:59:55;;;;;;;34.60;10.45;;;;;;;30.43;46.56;99297.38;5112662;27;20019;-73
2021/06/26 09:02:23;;;;;;;24.67;9.13;;;;;;;30.64;47.01;99282.03;5111025;28;20073;-74
2021/06/26 09:04:49;;;;;;;35.55;9.02;;;;;;;30.66;45.88;99290.22;5112414;28;20036;-74
2021/06/26 09:07:35;;;;;;;18.50;8.73;;;;;;;30.77;45.37;99289.72;5112177;28;20034;-73
2021/06/26 09:10:12;;;;;;;27.33;9.55;;;;;;;30.87;44.91;99293.44;5110526;28;20089;-74
2021/06/26 09:12:38;;;;;;;18.50;6.93;;;;;;;30.89;45.08;99287.97;5112137;28;20408;-75
2021/06/26 09:15:06;;;;;;;29.48;7.85;;;;;;;30.88;44.82;99292.16;5113413;27;20088;-74
2021/06/26 09:17:33;;;;;;;30.23;7.65;;;;;;;31.06;44.47;99282.69;5121228;27;20031;-74
2021/06/26 09:20:05;;;;;;;19.00;7.18;;;;;;;31.09;44.18;99285.41;5099909;28;20030;-73
2021/06/26 09:22:43;;;;;;;18.77;7.13;;;;;;;31.14;43.68;99278.19;5111985;28;20035;-77
2021/06/26 09:25:25;;;;;;;19.67;7.07;;;;;;;31.31;43.40;99280.75;5112010;28;20027;-76
2021/06/26 09:27:51;;;;;;;19.27;6.78;;;;;;;31.48;43.55;99282.00;5111690;28;20118;-72
2021/06/26 09:30:16;;;;;;;17.67;7.10;;;;;;;31.63;41.58;99278.44;5099623;28;20079;-72
2021/06/26 09:32:48;;;;;;;38.65;7.82;;;;;;;31.63;41.00;99282.13;5111658;28;20059;-71
2021/06/26 09:35:16;;;;;;;402.02;45.80;;;;;;;31.66;41.10;99280.34;5111443;28;20056;-74
2021/06/26 09:37:42;;;;;;;27.92;7.68;;;;;;;31.88;40.14;99285.91;5110163;28;20083;-79
2021/06/26 09:40:11;;;;;;;19.20;5.40;;;;;;;31.85;39.80;99280.31;5111876;28;20027;-73
2021/06/26 09:42:39;;;;;;;16.58;5.82;;;;;;;31.79;39.84;99285.94;5111416;28;20094;-74
2021/06/26 09:45:12;;;;;;;17.08;6.57;;;;;;;31.89;39.98;99283.84;5111737;28;20039;-72
2021/06/26 09:47:43;;;;;;;15.55;8.27;;;;;;;32.05;40.90;99289.22;5109305;28;20478;-75
2021/06/26 09:50:10;;;;;;;14.13;6.10;;;;;;;32.16;40.45;99282.94;5111228;28;20040;-72
2021/06/26 09:52:54;;;;;;;12.55;5.82;;;;;;;32.07;40.53;99275.06;5111042;28;20027;-74
2021/06/26 09:55:26;;;;;;;19.90;6.40;;;;;;;32.23;39.83;99281.75;5111136;28;20035;-76
2021/06/26 09:57:57;;;;;;;12.23;4.35;;;;;;;32.25;39.65;99272.56;5110829;28;20075;-74
2021/06/26 10:00:25;;;;;;;12.70;4.20;;;;;;;32.27;38.57;99270.78;5111155;28;20035;-74
2021/06/26 10:02:51;;;;;;;12.25;3.65;;;;;;;32.58;37.15;99261.00;5109897;28;20110;-76
2021/06/26 10:05:18;;;;;;;10.55;4.38;;;;;;;32.44;36.52;99261.72;5109713;28;20035;-74
2021/06/26 10:07:45;;;;;;;7.68;3.70;;;;;;;32.44;36.27;99247.25;5106596;28;20490;-74
2021/06/26 10:10:31;;;;;;;7.88;3.53;;;;;;;32.55;37.17;99244.59;5109022;28;20032;-73
2021/06/26 10:12:57;;;;;;;9.05;3.78;;;;;;;32.49;37.66;99232.13;5114068;27;20046;-73
2021/06/26 10:15:26;;;;;;;14.48;5.00;;;;;;;32.61;36.51;99233.94;5113848;27;20023;-73
2021/06/26 10:17:51;;;;;;;19.75;5.85;;;;;;;32.90;36.91;99235.34;5110521;28;20016;-73
2021/06/26 10:20:20;;;;;;;10.93;3.83;;;;;;;32.90;36.40;99232.44;5110402;28;20519;-73
2021/06/26 10:22:51;;;;;;;10.50;4.78;;;;;;;32.94;36.95;99225.66;5109157;28;20015;-73
2021/06/26 10:25:17;;;;;;;8.88;4.05;;;;;;;33.04;36.29;99216.38;5110356;28;20035;-74
2021/06/26 10:27:43;;;;;;;15.10;5.18;;;;;;;33.16;36.05;99217.38;5116841;28;20031;-75
2021/06/26 10:30:18;;;;;;;15.88;4.35;;;;;;;33.31;36.40;99222.41;5110807;28;20034;-74
2021/06/26 10:32:56;;;;;;;10.77;3.97;;;;;;;33.38;36.75;99221.97;5109108;28;20024;-74
2021/06/26 10:35:24;;;;;;;14.75;4.88;;;;;;;33.40;36.42;99222.28;5109002;28;20051;-73
2021/06/26 10:38:09;;;;;;;10.88;4.20;;;;;;;33.61;36.74;99222.38;5110473;28;20077;-73
2021/06/26 10:40:36;;;;;;;20.13;5.90;;;;;;;33.65;36.36;99210.59;5109951;28;20023;-74
2021/06/26 10:43:14;;;;;;;12.05;5.82;;;;;;;33.71;35.90;99217.25;5108972;28;20507;-74
2021/06/26 10:45:40;;;;;;;11.43;4.60;;;;;;;33.86;36.26;99208.53;5109980;28;20500;-74
2021/06/26 10:48:20;;;;;;;15.50;5.15;;;;;;;33.71;35.30;99206.47;5119857;27;20031;-72
2021/06/26 10:50:49;;;;;;;10.23;4.18;;;;;;;33.77;34.58;99206.56;5110132;28;20074;-73
2021/06/26 10:53:33;;;;;;;20.08;5.40;;;;;;;34.04;33.64;99198.03;5110399;28;20067;-74
2021/06/26 10:55:58;;;;;;;19.33;5.18;;;;;;;34.14;33.85;99205.28;5105787;28;20408;-73
2021/06/26 10:58:29;;;;;;;13.82;5.68;;;;;;;34.05;33.94;99206.22;5103689;28;20038;-73
2021/06/26 11:00:54;;;;;;;23.58;6.70;;;;;;;34.25;33.87;99205.44;5112598;27;20033;-75
2021/06/26 11:03:24;;;;;;;21.45;6.13;;;;;;;34.28;33.64;99201.53;5126820;27;20465;-74
2021/06/26 11:05:49;;;;;;;;;;;;;;;34.55;32.76;99196.63;5119424;27;20028;-75
2021/06/26 11:08:19;;;;;;;28.52;6.45;;;;;;;34.66;32.64;99195.94;5122487;27;19956;-73
2021/06/26 11:10:52;;;;;;;17.92;6.60;;;;;;;34.46;33.49;99190.13;5122614;27;20034;-74
2021/06/26 11:13:19;;;;;;;15.48;5.60;;;;;;;34.51;33.23;99177.78;5112637;28;20031;-73
2021/06/26 11:15:45;;;;;;;16.65;5.47;;;;;;;34.63;33.01;99175.84;5113803;28;20039;-73
2021/06/26 11:18:18;;;;;;;23.52;6.55;;;;;;;34.69;33.86;99173.81;5113919;28;20034;-73
2021/06/26 11:20:44;;;;;;;14.57;5.55;;;;;;;34.62;33.05;99175.03;5112607;28;20027;-73